sensor_id;sensor_type;location;lat;lon;timestamp;P1;durP1;ratioP1;P2;durP2;ratioP2
11685;SDS011;5899;51.282;6.094;2023-05-18T00:01:21;3.63;;;2.42;;
11685;SDS011;5899;51.282;6.094;2023-05-18T00:03:47;7.47;;;2.80;;
11685;SDS011;5899;51.282;6.094;2023-05-18T00:06:18;4.72;;;2.67;;
11685;SDS011;5899;51.282;6.094;2023-05-18T00:08:46;5.17;;;2.33;;
11685;SDS011;5899;51.282;6.094;2023-05-18T00:11:13;5.45;;;2.20;;
11685;SDS011;5899;51.282;6.094;2023-05-18T00:13:39;3.97;;;2.55;;
11685;SDS011;5899;51.282;6.094;2023-05-18T00:16:12;5.38;;;2.88;;
11685;SDS011;5899;51.282;6.094;2023-05-18T00:18:41;5.55;;;2.50;;
11685;SDS011;5899;51.282;6.094;2023-05-18T00:21:09;4.05;;;2.47;;
11685;SDS011;5899;51.282;6.094;2023-05-18T00:23:35;6.95;;;2.22;;
11685;SDS011;5899;51.282;6.094;2023-05-18T00:26:03;5.22;;;2.53;;
11685;SDS011;5899;51.282;6.094;2023-05-18T00:28:30;5.80;;;2.40;;
11685;SDS011;5899;51.282;6.094;2023-05-18T00:30:58;6.57;;;2.60;;
11685;SDS011;5899;51.282;6.094;2023-05-18T00:33:24;5.43;;;2.60;;
11685;SDS011;5899;51.282;6.094;2023-05-18T00:35:56;3.50;;;2.35;;
11685;SDS011;5899;51.282;6.094;2023-05-18T00:38:23;4.40;;;2.33;;
11685;SDS011;5899;51.282;6.094;2023-05-18T00:40:50;5.10;;;2.42;;
11685;SDS011;5899;51.282;6.094;2023-05-18T00:43:16;5.90;;;2.60;;
11685;SDS011;5899;51.282;6.094;2023-05-18T00:45:43;4.05;;;2.50;;
11685;SDS011;5899;51.282;6.094;2023-05-18T00:48:09;4.95;;;2.20;;
11685;SDS011;5899;51.282;6.094;2023-05-18T00:50:36;4.88;;;2.35;;
11685;SDS011;5899;51.282;6.094;2023-05-18T00:53:04;7.43;;;2.40;;
11685;SDS011;5899;51.282;6.094;2023-05-18T00:55:30;3.27;;;2.20;;
11685;SDS011;5899;51.282;6.094;2023-05-18T00:58:01;5.05;;;2.55;;
11685;SDS011;5899;51.282;6.094;2023-05-18T01:00:29;6.50;;;2.30;;
11685;SDS011;5899;51.282;6.094;2023-05-18T01:02:56;4.78;;;2.58;;
11685;SDS011;5899;51.282;6.094;2023-05-18T01:05:24;5.25;;;2.58;;
11685;SDS011;5899;51.282;6.094;2023-05-18T01:07:53;4.57;;;2.40;;
11685;SDS011;5899;51.282;6.094;2023-05-18T01:10:21;5.00;;;2.80;;
11685;SDS011;5899;51.282;6.094;2023-05-18T01:12:52;5.35;;;2.72;;
11685;SDS011;5899;51.282;6.094;2023-05-18T01:15:21;5.40;;;2.65;;
11685;SDS011;5899;51.282;6.094;2023-05-18T01:17:51;4.97;;;2.83;;
11685;SDS011;5899;51.282;6.094;2023-05-18T01:20:29;6.70;;;3.00;;
11685;SDS011;5899;51.282;6.094;2023-05-18T01:23:04;4.63;;;2.55;;
11685;SDS011;5899;51.282;6.094;2023-05-18T01:25:39;5.07;;;2.65;;
11685;SDS011;5899;51.282;6.094;2023-05-18T01:28:12;3.38;;;2.72;;
11685;SDS011;5899;51.282;6.094;2023-05-18T01:30:42;4.50;;;2.63;;
11685;SDS011;5899;51.282;6.094;2023-05-18T01:33:09;3.95;;;2.75;;
11685;SDS011;5899;51.282;6.094;2023-05-18T01:35:36;4.20;;;2.40;;
11685;SDS011;5899;51.282;6.094;2023-05-18T01:38:03;4.50;;;2.70;;
11685;SDS011;5899;51.282;6.094;2023-05-18T01:40:31;6.88;;;2.95;;
11685;SDS011;5899;51.282;6.094;2023-05-18T01:42:58;5.00;;;2.55;;
11685;SDS011;5899;51.282;6.094;2023-05-18T01:45:28;5.32;;;2.78;;
11685;SDS011;5899;51.282;6.094;2023-05-18T01:47:58;4.40;;;2.40;;
11685;SDS011;5899;51.282;6.094;2023-05-18T01:50:27;5.15;;;2.80;;
11685;SDS011;5899;51.282;6.094;2023-05-18T01:52:57;6.15;;;2.72;;
11685;SDS011;5899;51.282;6.094;2023-05-18T01:55:25;6.90;;;3.00;;
11685;SDS011;5899;51.282;6.094;2023-05-18T01:57:54;3.80;;;2.47;;
11685;SDS011;5899;51.282;6.094;2023-05-18T02:00:22;6.03;;;2.60;;
11685;SDS011;5899;51.282;6.094;2023-05-18T02:02:50;6.30;;;2.70;;
11685;SDS011;5899;51.282;6.094;2023-05-18T02:05:17;7.05;;;2.88;;
11685;SDS011;5899;51.282;6.094;2023-05-18T02:07:43;3.25;;;2.65;;
11685;SDS011;5899;51.282;6.094;2023-05-18T02:10:13;5.25;;;2.97;;
11685;SDS011;5899;51.282;6.094;2023-05-18T02:12:40;4.88;;;2.80;;
11685;SDS011;5899;51.282;6.094;2023-05-18T02:15:07;6.57;;;2.40;;
11685;SDS011;5899;51.282;6.094;2023-05-18T02:17:35;5.90;;;2.83;;
11685;SDS011;5899;51.282;6.094;2023-05-18T02:20:06;4.68;;;2.63;;
11685;SDS011;5899;51.282;6.094;2023-05-18T02:22:33;3.67;;;2.42;;
11685;SDS011;5899;51.282;6.094;2023-05-18T02:25:02;8.15;;;3.00;;
11685;SDS011;5899;51.282;6.094;2023-05-18T02:27:29;5.60;;;2.83;;
11685;SDS011;5899;51.282;6.094;2023-05-18T02:30:02;3.97;;;2.58;;
11685;SDS011;5899;51.282;6.094;2023-05-18T02:32:31;7.15;;;2.95;;
11685;SDS011;5899;51.282;6.094;2023-05-18T02:35:09;4.70;;;2.95;;
11685;SDS011;5899;51.282;6.094;2023-05-18T02:37:39;3.87;;;2.97;;
11685;SDS011;5899;51.282;6.094;2023-05-18T02:40:08;4.43;;;2.60;;
11685;SDS011;5899;51.282;6.094;2023-05-18T02:42:38;4.70;;;2.65;;
11685;SDS011;5899;51.282;6.094;2023-05-18T02:45:15;7.28;;;2.78;;
11685;SDS011;5899;51.282;6.094;2023-05-18T02:47:44;5.60;;;2.60;;
11685;SDS011;5899;51.282;6.094;2023-05-18T02:50:12;4.97;;;2.67;;
11685;SDS011;5899;51.282;6.094;2023-05-18T02:52:55;5.40;;;2.50;;
11685;SDS011;5899;51.282;6.094;2023-05-18T02:55:23;4.25;;;2.63;;
11685;SDS011;5899;51.282;6.094;2023-05-18T02:57:49;4.72;;;2.63;;
11685;SDS011;5899;51.282;6.094;2023-05-18T03:00:23;3.58;;;2.75;;
11685;SDS011;5899;51.282;6.094;2023-05-18T03:02:55;5.47;;;2.92;;
11685;SDS011;5899;51.282;6.094;2023-05-18T03:05:26;6.95;;;3.15;;
11685;SDS011;5899;51.282;6.094;2023-05-18T03:07:54;5.20;;;2.60;;
11685;SDS011;5899;51.282;6.094;2023-05-18T03:10:21;4.32;;;2.67;;
11685;SDS011;5899;51.282;6.094;2023-05-18T03:12:50;5.05;;;2.90;;
11685;SDS011;5899;51.282;6.094;2023-05-18T03:15:17;3.55;;;2.50;;
11685;SDS011;5899;51.282;6.094;2023-05-18T03:17:45;5.18;;;2.70;;
11685;SDS011;5899;51.282;6.094;2023-05-18T03:20:16;5.40;;;3.08;;
11685;SDS011;5899;51.282;6.094;2023-05-18T03:22:43;4.50;;;2.80;;
11685;SDS011;5899;51.282;6.094;2023-05-18T03:25:15;6.90;;;2.73;;
11685;SDS011;5899;51.282;6.094;2023-05-18T03:27:42;5.68;;;2.80;;
11685;SDS011;5899;51.282;6.094;2023-05-18T03:30:11;5.85;;;2.80;;
11685;SDS011;5899;51.282;6.094;2023-05-18T03:32:46;5.93;;;3.20;;
11685;SDS011;5899;51.282;6.094;2023-05-18T03:35:13;3.05;;;2.58;;
11685;SDS011;5899;51.282;6.094;2023-05-18T03:37:41;5.63;;;3.00;;
11685;SDS011;5899;51.282;6.094;2023-05-18T03:40:08;5.32;;;3.08;;
11685;SDS011;5899;51.282;6.094;2023-05-18T03:42:39;5.82;;;3.22;;
11685;SDS011;5899;51.282;6.094;2023-05-18T03:45:06;6.20;;;3.00;;
11685;SDS011;5899;51.282;6.094;2023-05-18T03:47:33;7.43;;;3.10;;
11685;SDS011;5899;51.282;6.094;2023-05-18T03:50:00;5.25;;;2.90;;
11685;SDS011;5899;51.282;6.094;2023-05-18T03:52:28;6.63;;;3.15;;
11685;SDS011;5899;51.282;6.094;2023-05-18T03:54:56;4.77;;;3.07;;
11685;SDS011;5899;51.282;6.094;2023-05-18T03:57:23;8.40;;;3.13;;
11685;SDS011;5899;51.282;6.094;2023-05-18T03:59:54;6.05;;;3.20;;
11685;SDS011;5899;51.282;6.094;2023-05-18T04:02:20;7.47;;;3.30;;
11685;SDS011;5899;51.282;6.094;2023-05-18T04:04:47;4.82;;;3.20;;
11685;SDS011;5899;51.282;6.094;2023-05-18T04:07:14;4.95;;;3.30;;
11685;SDS011;5899;51.282;6.094;2023-05-18T04:09:41;4.43;;;3.03;;
11685;SDS011;5899;51.282;6.094;2023-05-18T04:12:08;5.63;;;3.40;;
11685;SDS011;5899;51.282;6.094;2023-05-18T04:14:34;4.72;;;3.00;;
11685;SDS011;5899;51.282;6.094;2023-05-18T04:17:02;4.40;;;3.00;;
11685;SDS011;5899;51.282;6.094;2023-05-18T04:19:30;5.28;;;3.08;;
11685;SDS011;5899;51.282;6.094;2023-05-18T04:21:57;7.45;;;3.70;;
11685;SDS011;5899;51.282;6.094;2023-05-18T04:24:23;4.30;;;3.10;;
11685;SDS011;5899;51.282;6.094;2023-05-18T04:26:50;5.40;;;3.00;;
11685;SDS011;5899;51.282;6.094;2023-05-18T04:29:20;4.00;;;2.90;;
11685;SDS011;5899;51.282;6.094;2023-05-18T04:31:46;5.72;;;3.20;;
11685;SDS011;5899;51.282;6.094;2023-05-18T04:34:14;5.32;;;3.13;;
11685;SDS011;5899;51.282;6.094;2023-05-18T04:36:46;4.82;;;3.28;;
11685;SDS011;5899;51.282;6.094;2023-05-18T04:39:15;3.97;;;3.20;;
11685;SDS011;5899;51.282;6.094;2023-05-18T04:41:42;5.65;;;3.17;;
11685;SDS011;5899;51.282;6.094;2023-05-18T04:44:10;6.40;;;3.10;;
11685;SDS011;5899;51.282;6.094;2023-05-18T04:46:38;7.40;;;3.40;;
11685;SDS011;5899;51.282;6.094;2023-05-18T04:49:04;5.20;;;3.20;;
11685;SDS011;5899;51.282;6.094;2023-05-18T04:51:36;8.57;;;3.30;;
11685;SDS011;5899;51.282;6.094;2023-05-18T04:54:03;6.45;;;3.50;;
11685;SDS011;5899;51.282;6.094;2023-05-18T04:56:32;4.35;;;3.20;;
11685;SDS011;5899;51.282;6.094;2023-05-18T04:58:59;6.03;;;3.40;;
11685;SDS011;5899;51.282;6.094;2023-05-18T05:01:26;7.15;;;3.25;;
11685;SDS011;5899;51.282;6.094;2023-05-18T05:03:54;6.18;;;3.20;;
11685;SDS011;5899;51.282;6.094;2023-05-18T05:06:20;6.10;;;3.50;;
11685;SDS011;5899;51.282;6.094;2023-05-18T05:08:48;5.00;;;3.50;;
11685;SDS011;5899;51.282;6.094;2023-05-18T05:11:15;7.22;;;3.65;;
11685;SDS011;5899;51.282;6.094;2023-05-18T05:13:41;3.60;;;3.03;;
11685;SDS011;5899;51.282;6.094;2023-05-18T05:16:08;7.47;;;3.75;;
11685;SDS011;5899;51.282;6.094;2023-05-18T05:18:34;6.30;;;3.60;;
11685;SDS011;5899;51.282;6.094;2023-05-18T05:21:01;6.03;;;4.13;;
11685;SDS011;5899;51.282;6.094;2023-05-18T05:23:28;5.30;;;3.27;;
11685;SDS011;5899;51.282;6.094;2023-05-18T05:25:56;5.40;;;3.65;;
11685;SDS011;5899;51.282;6.094;2023-05-18T05:28:25;6.83;;;3.30;;
11685;SDS011;5899;51.282;6.094;2023-05-18T05:30:51;7.20;;;3.77;;
11685;SDS011;5899;51.282;6.094;2023-05-18T05:33:18;5.47;;;3.55;;
11685;SDS011;5899;51.282;6.094;2023-05-18T05:35:45;6.10;;;3.60;;
11685;SDS011;5899;51.282;6.094;2023-05-18T05:38:13;5.93;;;3.38;;
11685;SDS011;5899;51.282;6.094;2023-05-18T05:40:41;5.32;;;3.80;;
11685;SDS011;5899;51.282;6.094;2023-05-18T05:43:10;7.32;;;3.88;;
11685;SDS011;5899;51.282;6.094;2023-05-18T05:45:38;8.90;;;3.90;;
11685;SDS011;5899;51.282;6.094;2023-05-18T05:48:07;6.53;;;3.70;;
11685;SDS011;5899;51.282;6.094;2023-05-18T05:50:33;9.52;;;4.00;;
11685;SDS011;5899;51.282;6.094;2023-05-18T05:53:01;3.93;;;3.00;;
11685;SDS011;5899;51.282;6.094;2023-05-18T05:55:28;7.65;;;4.28;;
11685;SDS011;5899;51.282;6.094;2023-05-18T05:57:58;4.35;;;3.22;;
11685;SDS011;5899;51.282;6.094;2023-05-18T06:00:31;4.82;;;3.42;;
11685;SDS011;5899;51.282;6.094;2023-05-18T06:02:58;7.22;;;3.65;;
11685;SDS011;5899;51.282;6.094;2023-05-18T06:05:31;7.45;;;3.28;;
11685;SDS011;5899;51.282;6.094;2023-05-18T06:07:57;7.55;;;3.65;;
11685;SDS011;5899;51.282;6.094;2023-05-18T06:10:27;6.95;;;3.55;;
11685;SDS011;5899;51.282;6.094;2023-05-18T06:13:00;7.93;;;3.58;;
11685;SDS011;5899;51.282;6.094;2023-05-18T06:15:29;6.25;;;3.58;;
11685;SDS011;5899;51.282;6.094;2023-05-18T06:17:57;7.75;;;4.00;;
11685;SDS011;5899;51.282;6.094;2023-05-18T06:20:23;5.38;;;3.50;;
11685;SDS011;5899;51.282;6.094;2023-05-18T06:22:52;8.00;;;4.22;;
11685;SDS011;5899;51.282;6.094;2023-05-18T06:25:19;5.73;;;3.27;;
11685;SDS011;5899;51.282;6.094;2023-05-18T06:27:48;4.60;;;3.17;;
11685;SDS011;5899;51.282;6.094;2023-05-18T06:30:16;7.13;;;3.03;;
11685;SDS011;5899;51.282;6.094;2023-05-18T06:32:43;5.60;;;3.40;;
11685;SDS011;5899;51.282;6.094;2023-05-18T06:35:15;6.63;;;3.55;;
11685;SDS011;5899;51.282;6.094;2023-05-18T06:37:43;5.95;;;3.30;;
11685;SDS011;5899;51.282;6.094;2023-05-18T06:40:15;8.93;;;3.80;;
11685;SDS011;5899;51.282;6.094;2023-05-18T06:42:49;5.97;;;3.80;;
11685;SDS011;5899;51.282;6.094;2023-05-18T06:45:17;5.53;;;3.50;;
11685;SDS011;5899;51.282;6.094;2023-05-18T06:47:44;6.63;;;3.07;;
11685;SDS011;5899;51.282;6.094;2023-05-18T06:50:14;8.57;;;3.53;;
11685;SDS011;5899;51.282;6.094;2023-05-18T06:52:40;5.78;;;4.13;;
11685;SDS011;5899;51.282;6.094;2023-05-18T06:55:11;5.18;;;2.90;;
11685;SDS011;5899;51.282;6.094;2023-05-18T06:57:41;6.53;;;3.40;;
11685;SDS011;5899;51.282;6.094;2023-05-18T07:00:08;5.93;;;3.50;;
11685;SDS011;5899;51.282;6.094;2023-05-18T07:02:38;6.53;;;3.20;;
11685;SDS011;5899;51.282;6.094;2023-05-18T07:05:07;7.85;;;3.25;;
11685;SDS011;5899;51.282;6.094;2023-05-18T07:07:45;6.90;;;3.30;;
11685;SDS011;5899;51.282;6.094;2023-05-18T07:10:21;5.55;;;3.00;;
11685;SDS011;5899;51.282;6.094;2023-05-18T07:12:49;5.85;;;3.10;;
11685;SDS011;5899;51.282;6.094;2023-05-18T07:15:18;5.63;;;2.90;;
11685;SDS011;5899;51.282;6.094;2023-05-18T07:17:45;4.75;;;3.33;;
11685;SDS011;5899;51.282;6.094;2023-05-18T07:20:12;5.75;;;3.40;;
11685;SDS011;5899;51.282;6.094;2023-05-18T07:22:41;5.23;;;3.03;;
11685;SDS011;5899;51.282;6.094;2023-05-18T07:25:08;6.50;;;3.15;;
11685;SDS011;5899;51.282;6.094;2023-05-18T07:27:41;7.55;;;3.05;;
11685;SDS011;5899;51.282;6.094;2023-05-18T07:30:17;4.38;;;2.80;;
11685;SDS011;5899;51.282;6.094;2023-05-18T07:32:57;3.90;;;3.40;;
11685;SDS011;5899;51.282;6.094;2023-05-18T07:35:26;5.68;;;2.92;;
11685;SDS011;5899;51.282;6.094;2023-05-18T07:37:59;3.72;;;2.85;;
11685;SDS011;5899;51.282;6.094;2023-05-18T07:40:27;4.10;;;2.90;;
11685;SDS011;5899;51.282;6.094;2023-05-18T07:42:55;4.00;;;2.65;;
11685;SDS011;5899;51.282;6.094;2023-05-18T07:45:24;4.30;;;2.90;;
11685;SDS011;5899;51.282;6.094;2023-05-18T07:47:57;7.10;;;3.30;;
11685;SDS011;5899;51.282;6.094;2023-05-18T07:50:29;5.13;;;3.03;;
11685;SDS011;5899;51.282;6.094;2023-05-18T07:53:00;5.57;;;2.83;;
11685;SDS011;5899;51.282;6.094;2023-05-18T07:55:28;4.60;;;3.13;;
11685;SDS011;5899;51.282;6.094;2023-05-18T07:57:55;7.22;;;3.13;;
11685;SDS011;5899;51.282;6.094;2023-05-18T08:00:30;7.03;;;3.30;;
11685;SDS011;5899;51.282;6.094;2023-05-18T08:03:15;3.50;;;2.80;;
11685;SDS011;5899;51.282;6.094;2023-05-18T08:05:55;5.35;;;3.10;;
11685;SDS011;5899;51.282;6.094;2023-05-18T08:08:36;5.25;;;2.80;;
11685;SDS011;5899;51.282;6.094;2023-05-18T08:11:10;6.07;;;2.90;;
11685;SDS011;5899;51.282;6.094;2023-05-18T08:14:06;5.13;;;3.08;;
11685;SDS011;5899;51.282;6.094;2023-05-18T08:16:40;4.05;;;2.30;;
11685;SDS011;5899;51.282;6.094;2023-05-18T08:19:32;5.13;;;3.03;;
11685;SDS011;5899;51.282;6.094;2023-05-18T08:22:26;3.95;;;2.50;;
11685;SDS011;5899;51.282;6.094;2023-05-18T08:25:07;5.25;;;2.70;;
11685;SDS011;5899;51.282;6.094;2023-05-18T08:27:39;6.68;;;2.72;;
11685;SDS011;5899;51.282;6.094;2023-05-18T08:30:06;4.00;;;2.40;;
11685;SDS011;5899;51.282;6.094;2023-05-18T08:32:48;4.65;;;2.10;;
11685;SDS011;5899;51.282;6.094;2023-05-18T08:35:16;5.88;;;2.40;;
11685;SDS011;5899;51.282;6.094;2023-05-18T08:37:46;4.80;;;2.28;;
11685;SDS011;5899;51.282;6.094;2023-05-18T08:45:49;4.10;;;2.55;;
11685;SDS011;5899;51.282;6.094;2023-05-18T08:48:18;4.57;;;2.20;;
11685;SDS011;5899;51.282;6.094;2023-05-18T08:53:49;4.85;;;2.75;;
11685;SDS011;5899;51.282;6.094;2023-05-18T08:56:19;4.80;;;2.90;;
11685;SDS011;5899;51.282;6.094;2023-05-18T08:58:58;7.03;;;3.00;;
11685;SDS011;5899;51.282;6.094;2023-05-18T09:04:28;4.50;;;3.17;;
11685;SDS011;5899;51.282;6.094;2023-05-18T09:07:02;5.40;;;3.00;;
11685;SDS011;5899;51.282;6.094;2023-05-18T09:09:31;3.90;;;2.90;;
11685;SDS011;5899;51.282;6.094;2023-05-18T09:12:05;4.32;;;2.90;;
11685;SDS011;5899;51.282;6.094;2023-05-18T09:14:37;4.05;;;2.67;;
11685;SDS011;5899;51.282;6.094;2023-05-18T09:17:24;5.93;;;3.03;;
11685;SDS011;5899;51.282;6.094;2023-05-18T09:20:01;7.18;;;2.70;;
11685;SDS011;5899;51.282;6.094;2023-05-18T09:22:38;5.95;;;2.72;;
11685;SDS011;5899;51.282;6.094;2023-05-18T09:25:11;5.63;;;2.70;;
11685;SDS011;5899;51.282;6.094;2023-05-18T09:27:39;4.33;;;2.57;;
11685;SDS011;5899;51.282;6.094;2023-05-18T09:30:15;3.50;;;2.80;;
11685;SDS011;5899;51.282;6.094;2023-05-18T09:32:45;3.17;;;2.40;;
11685;SDS011;5899;51.282;6.094;2023-05-18T09:35:41;6.32;;;3.28;;
11685;SDS011;5899;51.282;6.094;2023-05-18T09:38:20;6.05;;;3.63;;
11685;SDS011;5899;51.282;6.094;2023-05-18T09:41:05;5.60;;;3.08;;
11685;SDS011;5899;51.282;6.094;2023-05-18T09:43:41;6.00;;;2.95;;
11685;SDS011;5899;51.282;6.094;2023-05-18T09:46:14;6.57;;;2.95;;
11685;SDS011;5899;51.282;6.094;2023-05-18T09:48:56;6.95;;;2.88;;
11685;SDS011;5899;51.282;6.094;2023-05-18T09:51:48;5.75;;;2.90;;
11685;SDS011;5899;51.282;6.094;2023-05-18T09:54:25;5.05;;;3.00;;
11685;SDS011;5899;51.282;6.094;2023-05-18T09:57:03;4.78;;;2.85;;
11685;SDS011;5899;51.282;6.094;2023-05-18T09:59:34;5.68;;;3.25;;
11685;SDS011;5899;51.282;6.094;2023-05-18T10:02:26;4.90;;;3.42;;
11685;SDS011;5899;51.282;6.094;2023-05-18T10:05:30;4.35;;;2.97;;
11685;SDS011;5899;51.282;6.094;2023-05-18T10:08:09;4.85;;;3.05;;
11685;SDS011;5899;51.282;6.094;2023-05-18T10:10:58;4.80;;;2.75;;
11685;SDS011;5899;51.282;6.094;2023-05-18T10:16:20;8.52;;;3.40;;
11685;SDS011;5899;51.282;6.094;2023-05-18T10:19:02;6.68;;;2.92;;
11685;SDS011;5899;51.282;6.094;2023-05-18T10:21:35;4.78;;;2.90;;
11685;SDS011;5899;51.282;6.094;2023-05-18T10:24:08;5.80;;;2.80;;
11685;SDS011;5899;51.282;6.094;2023-05-18T10:27:00;4.15;;;2.75;;
11685;SDS011;5899;51.282;6.094;2023-05-18T10:39:21;5.45;;;2.70;;
11685;SDS011;5899;51.282;6.094;2023-05-18T10:53:31;5.47;;;2.78;;
11685;SDS011;5899;51.282;6.094;2023-05-18T10:56:22;6.22;;;2.90;;
11685;SDS011;5899;51.282;6.094;2023-05-18T10:59:03;3.97;;;2.47;;
11685;SDS011;5899;51.282;6.094;2023-05-18T11:01:38;7.05;;;2.95;;
11685;SDS011;5899;51.282;6.094;2023-05-18T11:04:16;3.80;;;2.60;;
11685;SDS011;5899;51.282;6.094;2023-05-18T11:12:39;6.38;;;2.90;;
11685;SDS011;5899;51.282;6.094;2023-05-18T11:15:11;6.63;;;2.85;;
11685;SDS011;5899;51.282;6.094;2023-05-18T11:25:38;5.30;;;3.28;;
11685;SDS011;5899;51.282;6.094;2023-05-18T11:32:26;4.55;;;2.90;;
11685;SDS011;5899;51.282;6.094;2023-05-18T11:35:00;5.93;;;3.43;;
11685;SDS011;5899;51.282;6.094;2023-05-18T11:37:48;6.43;;;3.13;;
11685;SDS011;5899;51.282;6.094;2023-05-18T11:43:53;6.13;;;3.25;;
11685;SDS011;5899;51.282;6.094;2023-05-18T11:46:16;5.10;;;2.90;;
11685;SDS011;5899;51.282;6.094;2023-05-18T11:49:00;5.77;;;3.33;;
11685;SDS011;5899;51.282;6.094;2023-05-18T11:51:32;6.53;;;3.17;;
11685;SDS011;5899;51.282;6.094;2023-05-18T11:54:06;6.05;;;3.00;;
11685;SDS011;5899;51.282;6.094;2023-05-18T11:56:34;6.40;;;3.03;;
11685;SDS011;5899;51.282;6.094;2023-05-18T11:59:09;5.72;;;3.40;;
11685;SDS011;5899;51.282;6.094;2023-05-18T12:01:36;5.18;;;3.17;;
11685;SDS011;5899;51.282;6.094;2023-05-18T12:04:07;4.13;;;2.55;;
11685;SDS011;5899;51.282;6.094;2023-05-18T12:06:43;3.58;;;2.60;;
11685;SDS011;5899;51.282;6.094;2023-05-18T12:09:09;4.63;;;2.90;;
11685;SDS011;5899;51.282;6.094;2023-05-18T12:11:36;5.97;;;3.08;;
11685;SDS011;5899;51.282;6.094;2023-05-18T12:14:05;4.33;;;3.13;;
11685;SDS011;5899;51.282;6.094;2023-05-18T12:16:37;5.00;;;2.92;;
11685;SDS011;5899;51.282;6.094;2023-05-18T12:19:12;4.82;;;3.22;;
11685;SDS011;5899;51.282;6.094;2023-05-18T12:21:56;6.05;;;3.30;;
11685;SDS011;5899;51.282;6.094;2023-05-18T12:24:28;4.72;;;2.95;;
11685;SDS011;5899;51.282;6.094;2023-05-18T12:26:59;4.45;;;2.97;;
11685;SDS011;5899;51.282;6.094;2023-05-18T12:29:42;4.60;;;2.83;;
11685;SDS011;5899;51.282;6.094;2023-05-18T12:32:13;5.88;;;3.78;;
11685;SDS011;5899;51.282;6.094;2023-05-18T12:34:44;7.72;;;3.70;;
11685;SDS011;5899;51.282;6.094;2023-05-18T12:37:13;5.57;;;3.40;;
11685;SDS011;5899;51.282;6.094;2023-05-18T12:39:41;4.82;;;3.45;;
11685;SDS011;5899;51.282;6.094;2023-05-18T12:42:13;4.80;;;3.03;;
11685;SDS011;5899;51.282;6.094;2023-05-18T12:44:41;4.20;;;2.90;;
11685;SDS011;5899;51.282;6.094;2023-05-18T12:47:11;5.68;;;2.88;;
11685;SDS011;5899;51.282;6.094;2023-05-18T12:49:56;4.75;;;3.30;;
11685;SDS011;5899;51.282;6.094;2023-05-18T12:52:32;3.72;;;2.88;;
11685;SDS011;5899;51.282;6.094;2023-05-18T12:54:59;4.97;;;3.17;;
11685;SDS011;5899;51.282;6.094;2023-05-18T12:57:33;5.47;;;2.65;;
11685;SDS011;5899;51.282;6.094;2023-05-18T13:00:24;6.30;;;2.65;;
11685;SDS011;5899;51.282;6.094;2023-05-18T13:02:51;7.22;;;3.10;;
11685;SDS011;5899;51.282;6.094;2023-05-18T13:05:24;6.13;;;3.13;;
11685;SDS011;5899;51.282;6.094;2023-05-18T13:07:51;5.07;;;2.80;;
11685;SDS011;5899;51.282;6.094;2023-05-18T13:10:21;4.05;;;2.58;;
11685;SDS011;5899;51.282;6.094;2023-05-18T13:12:49;6.10;;;2.90;;
11685;SDS011;5899;51.282;6.094;2023-05-18T13:15:31;2.83;;;2.50;;
11685;SDS011;5899;51.282;6.094;2023-05-18T13:17:59;6.13;;;2.72;;
11685;SDS011;5899;51.282;6.094;2023-05-18T13:20:40;7.10;;;2.83;;
11685;SDS011;5899;51.282;6.094;2023-05-18T13:23:10;5.95;;;2.75;;
11685;SDS011;5899;51.282;6.094;2023-05-18T13:25:43;4.45;;;2.72;;
11685;SDS011;5899;51.282;6.094;2023-05-18T13:28:13;3.83;;;2.60;;
11685;SDS011;5899;51.282;6.094;2023-05-18T13:30:40;3.85;;;2.63;;
11685;SDS011;5899;51.282;6.094;2023-05-18T13:33:07;4.78;;;2.30;;
11685;SDS011;5899;51.282;6.094;2023-05-18T13:35:36;5.57;;;2.57;;
11685;SDS011;5899;51.282;6.094;2023-05-18T13:38:08;6.50;;;3.08;;
11685;SDS011;5899;51.282;6.094;2023-05-18T13:40:37;6.20;;;3.35;;
11685;SDS011;5899;51.282;6.094;2023-05-18T13:43:10;5.10;;;2.57;;
11685;SDS011;5899;51.282;6.094;2023-05-18T13:45:37;5.22;;;2.80;;
11685;SDS011;5899;51.282;6.094;2023-05-18T13:48:12;5.22;;;2.63;;
11685;SDS011;5899;51.282;6.094;2023-05-18T13:50:41;4.60;;;2.53;;
11685;SDS011;5899;51.282;6.094;2023-05-18T13:53:12;5.73;;;2.47;;
11685;SDS011;5899;51.282;6.094;2023-05-18T13:55:39;3.65;;;2.45;;
11685;SDS011;5899;51.282;6.094;2023-05-18T13:58:09;2.97;;;2.27;;
11685;SDS011;5899;51.282;6.094;2023-05-18T14:00:37;5.13;;;2.45;;
11685;SDS011;5899;51.282;6.094;2023-05-18T14:03:18;3.03;;;2.50;;
11685;SDS011;5899;51.282;6.094;2023-05-18T14:05:47;6.05;;;2.90;;
11685;SDS011;5899;51.282;6.094;2023-05-18T14:08:14;3.90;;;2.60;;
11685;SDS011;5899;51.282;6.094;2023-05-18T14:10:44;4.72;;;2.30;;
11685;SDS011;5899;51.282;6.094;2023-05-18T14:13:10;5.90;;;2.63;;
11685;SDS011;5899;51.282;6.094;2023-05-18T14:15:41;3.78;;;2.20;;
11685;SDS011;5899;51.282;6.094;2023-05-18T14:18:23;5.20;;;2.83;;
11685;SDS011;5899;51.282;6.094;2023-05-18T14:20:51;3.65;;;2.50;;
11685;SDS011;5899;51.282;6.094;2023-05-18T14:23:33;3.95;;;2.50;;
11685;SDS011;5899;51.282;6.094;2023-05-18T14:26:02;6.70;;;2.30;;
11685;SDS011;5899;51.282;6.094;2023-05-18T14:28:28;6.40;;;2.80;;
11685;SDS011;5899;51.282;6.094;2023-05-18T14:30:57;3.05;;;2.63;;
11685;SDS011;5899;51.282;6.094;2023-05-18T14:33:29;4.95;;;2.35;;
11685;SDS011;5899;51.282;6.094;2023-05-18T14:35:59;4.03;;;2.65;;
11685;SDS011;5899;51.282;6.094;2023-05-18T14:38:29;4.55;;;2.35;;
11685;SDS011;5899;51.282;6.094;2023-05-18T14:40:57;4.68;;;2.10;;
11685;SDS011;5899;51.282;6.094;2023-05-18T14:43:38;6.95;;;2.28;;
11685;SDS011;5899;51.282;6.094;2023-05-18T14:46:04;5.83;;;2.43;;
11685;SDS011;5899;51.282;6.094;2023-05-18T14:48:47;3.97;;;2.28;;
11685;SDS011;5899;51.282;6.094;2023-05-18T14:51:16;2.88;;;1.92;;
11685;SDS011;5899;51.282;6.094;2023-05-18T14:53:43;3.60;;;2.38;;
11685;SDS011;5899;51.282;6.094;2023-05-18T14:56:17;5.03;;;2.50;;
11685;SDS011;5899;51.282;6.094;2023-05-18T14:58:44;4.80;;;2.60;;
11685;SDS011;5899;51.282;6.094;2023-05-18T15:01:11;4.07;;;2.05;;
11685;SDS011;5899;51.282;6.094;2023-05-18T15:03:40;5.53;;;2.47;;
11685;SDS011;5899;51.282;6.094;2023-05-18T15:06:07;3.58;;;2.10;;
11685;SDS011;5899;51.282;6.094;2023-05-18T15:08:39;5.40;;;2.20;;
11685;SDS011;5899;51.282;6.094;2023-05-18T15:11:05;5.25;;;2.63;;
11685;SDS011;5899;51.282;6.094;2023-05-18T15:13:35;4.47;;;2.35;;
11685;SDS011;5899;51.282;6.094;2023-05-18T15:16:01;4.85;;;2.38;;
11685;SDS011;5899;51.282;6.094;2023-05-18T15:18:28;3.60;;;2.20;;
11685;SDS011;5899;51.282;6.094;2023-05-18T15:20:54;3.55;;;2.40;;
11685;SDS011;5899;51.282;6.094;2023-05-18T15:23:22;5.50;;;2.55;;
11685;SDS011;5899;51.282;6.094;2023-05-18T15:25:51;3.30;;;2.30;;
11685;SDS011;5899;51.282;6.094;2023-05-18T15:28:18;4.90;;;2.40;;
11685;SDS011;5899;51.282;6.094;2023-05-18T15:30:44;5.10;;;2.33;;
11685;SDS011;5899;51.282;6.094;2023-05-18T15:33:11;3.03;;;2.15;;
11685;SDS011;5899;51.282;6.094;2023-05-18T15:35:40;5.35;;;2.42;;
11685;SDS011;5899;51.282;6.094;2023-05-18T15:38:07;4.82;;;2.50;;
11685;SDS011;5899;51.282;6.094;2023-05-18T15:40:33;3.95;;;2.20;;
11685;SDS011;5899;51.282;6.094;2023-05-18T15:43:02;5.75;;;2.60;;
11685;SDS011;5899;51.282;6.094;2023-05-18T15:45:28;3.00;;;2.25;;
11685;SDS011;5899;51.282;6.094;2023-05-18T15:47:55;4.00;;;2.40;;
11685;SDS011;5899;51.282;6.094;2023-05-18T15:50:22;3.92;;;2.22;;
11685;SDS011;5899;51.282;6.094;2023-05-18T15:52:50;3.17;;;2.05;;
11685;SDS011;5899;51.282;6.094;2023-05-18T15:55:17;3.45;;;2.00;;
11685;SDS011;5899;51.282;6.094;2023-05-18T15:57:44;4.75;;;1.83;;
11685;SDS011;5899;51.282;6.094;2023-05-18T16:00:12;4.43;;;2.00;;
11685;SDS011;5899;51.282;6.094;2023-05-18T16:02:39;2.38;;;1.88;;
11685;SDS011;5899;51.282;6.094;2023-05-18T16:05:07;4.45;;;2.15;;
11685;SDS011;5899;51.282;6.094;2023-05-18T16:07:34;3.50;;;2.10;;
11685;SDS011;5899;51.282;6.094;2023-05-18T16:10:04;3.22;;;2.10;;
11685;SDS011;5899;51.282;6.094;2023-05-18T16:12:36;6.22;;;2.13;;
11685;SDS011;5899;51.282;6.094;2023-05-18T16:15:05;5.13;;;2.35;;
11685;SDS011;5899;51.282;6.094;2023-05-18T16:17:40;5.53;;;2.08;;
11685;SDS011;5899;51.282;6.094;2023-05-18T16:20:08;4.23;;;2.23;;